PWSweather.com
Personal Weather Stations
Station Observations
IHTIMAN1
Neighbourhood 1, IhtimanBG 2050

Neighbourhood 1IhtimanBG 2050

Lat: 42.436852, Lon: 23.817921

Elevation: 2066

Station Type: Oregon Scientific WMR968

http://ihtiman-meteo.com

Latest ConditionsUpdated 5:00:00 PM GMT+02:02 Wednesday, Nov 21, 2018
Currently Today's Max Today's Min Today's Average
Temperature 42.2°F5.7°C 43.3°F6.3°C 37.0°F2.8°C 40.0°F4.4°C
Dew Point 42.2°F5.7°C 43.3°F6.3°C 36.8°F2.7°C 40.0°F4.4°C
Winds 1.2 mph NW1.9 kmh NW 2.3 mph -3.7 kmh - - 0.1 mph 0.2 kmh
Wind Gusts 3.5 mph5.6 kmh 4.6 mph7.4 kmh - -
Humidity 100% 100% 99% 100%
Pressure 29.82 in1009.8 mb 29.97 in1014.9 mb 29.82 in1009.8 mb -
Precipitation - 0.80 in20.3 mm - -
Hour Temp Dew Point Humidity Winds Wind Gusts Pressure Precip Precip Rate Daily Precip Total
05:00 PM 42.2°F5.7°C 42.2°F5.7°C 100% 1.2 mph NW1.9 kmh NW 3.5 mph5.6 kmh 29.82 in1009.8 mb - 0.09 in2.3 mm 0.80 in20.3 mm
04:50 PM 42.4°F5.8°C 42.4°F5.8°C 100% 2.3 mph WNW3.7 kmh WNW 3.5 mph5.6 kmh 29.82 in1009.8 mb - 0.09 in2.3 mm 0.80 in20.3 mm
04:40 PM 42.6°F5.9°C 42.6°F5.9°C 100% Calm Calm 3.5 mph5.6 kmh 29.82 in1009.8 mb - 0.09 in2.3 mm 0.80 in20.3 mm
04:30 PM 42.8°F6.0°C 42.8°F6.0°C 100% Calm Calm -- 29.82 in1009.8 mb - 0.09 in2.3 mm 0.76 in19.3 mm
04:20 PM 43.0°F6.1°C 43.0°F6.1°C 100% Calm Calm 2.3 mph3.7 kmh 29.82 in1009.8 mb - 0.09 in2.3 mm 0.76 in19.3 mm
04:10 PM 43.0°F6.1°C 43.0°F6.1°C 100% 1.2 mph W1.9 kmh W 2.3 mph3.7 kmh 29.82 in1009.8 mb - 0.09 in2.3 mm 0.71 in18.0 mm
04:00 PM 43.2°F6.2°C 43.2°F6.2°C 100% Calm Calm -- 29.82 in1009.8 mb - 0.09 in2.3 mm 0.71 in18.0 mm
03:50 PM 43.2°F6.2°C 43.2°F6.2°C 100% Calm Calm -- 29.82 in1009.8 mb - 0.14 in3.6 mm 0.71 in18.0 mm
03:40 PM 43.2°F6.2°C 43.2°F6.2°C 100% Calm Calm -- 29.82 in1009.8 mb - 0.14 in3.6 mm 0.71 in18.0 mm
03:30 PM 43.3°F6.3°C 43.3°F6.3°C 100% Calm Calm -- 29.82 in1009.8 mb - 0.14 in3.6 mm 0.66 in16.8 mm
03:20 PM 43.3°F6.3°C 43.3°F6.3°C 100% Calm Calm -- 29.82 in1009.8 mb - 0.14 in3.6 mm 0.66 in16.8 mm
03:00 PM 43.3°F6.3°C 43.3°F6.3°C 100% Calm Calm -- 29.82 in1009.8 mb - 0.14 in3.6 mm 0.61 in15.5 mm
02:50 PM 43.3°F6.3°C 43.3°F6.3°C 100% Calm Calm -- 29.82 in1009.8 mb - 0.14 in3.6 mm 0.57 in14.5 mm
02:40 PM 43.3°F6.3°C 43.3°F6.3°C 100% Calm Calm -- 29.82 in1009.8 mb - 0.14 in3.6 mm 0.57 in14.5 mm
02:30 PM 43.2°F6.2°C 43.2°F6.2°C 100% Calm Calm -- 29.82 in1009.8 mb - 0.09 in2.3 mm 0.52 in13.2 mm
02:20 PM 43.1°F6.2°C 43.1°F6.2°C 100% Calm Calm -- 29.82 in1009.8 mb - 0.09 in2.3 mm 0.52 in13.2 mm
02:10 PM 43.0°F6.1°C 43.0°F6.1°C 100% Calm Calm -- 29.82 in1009.8 mb - 0.14 in3.6 mm 0.52 in13.2 mm
02:00 PM 43.0°F6.1°C 43.0°F6.1°C 100% Calm Calm -- 29.82 in1009.8 mb - 0.09 in2.3 mm 0.47 in11.9 mm
01:50 PM 43.0°F6.1°C 43.0°F6.1°C 100% Calm Calm -- 29.82 in1009.8 mb - 0.14 in3.6 mm 0.43 in10.9 mm
01:40 PM 43.0°F6.1°C 43.0°F6.1°C 100% Calm Calm 3.5 mph5.6 kmh 29.82 in1009.8 mb - 0.14 in3.6 mm 0.43 in10.9 mm
01:30 PM 42.8°F6.0°C 42.8°F6.0°C 100% Calm Calm -- 29.86 in1011.2 mb - 0.14 in3.6 mm 0.43 in10.9 mm
01:20 PM 42.8°F6.0°C 42.8°F6.0°C 100% Calm Calm -- 29.82 in1009.8 mb - 0.14 in3.6 mm 0.43 in10.9 mm
01:10 PM 42.6°F5.9°C 42.6°F5.9°C 100% Calm Calm -- 29.82 in1009.8 mb - 0.19 in4.8 mm 0.38 in9.7 mm
01:00 PM 42.4°F5.8°C 42.4°F5.8°C 100% Calm Calm -- 29.82 in1009.8 mb - 0.19 in4.8 mm 0.38 in9.7 mm
12:50 PM 42.4°F5.8°C 42.4°F5.8°C 100% Calm Calm -- 29.82 in1009.8 mb - 0.09 in2.3 mm 0.28 in7.1 mm
12:40 PM 42.4°F5.8°C 42.4°F5.8°C 100% Calm Calm -- 29.82 in1009.8 mb - 0.14 in3.6 mm 0.28 in7.1 mm
12:30 PM 42.3°F5.7°C 42.3°F5.7°C 100% Calm Calm -- 29.82 in1009.8 mb - 0.19 in4.8 mm 0.28 in7.1 mm
12:20 PM 42.1°F5.6°C 42.1°F5.6°C 100% Calm Calm -- 29.86 in1011.2 mb - 0.19 in4.8 mm 0.28 in7.1 mm
12:10 PM 42.1°F5.6°C 42.1°F5.6°C 100% Calm Calm -- 29.86 in1011.2 mb - 0.14 in3.6 mm 0.24 in6.1 mm
12:00 PM 41.9°F5.5°C 41.9°F5.5°C 100% Calm Calm -- 29.86 in1011.2 mb - 0.14 in3.6 mm 0.19 in4.8 mm
11:50 AM 41.7°F5.4°C 41.7°F5.4°C 100% Calm Calm -- 29.86 in1011.2 mb - 0.14 in3.6 mm 0.19 in4.8 mm
11:40 AM 41.6°F5.3°C 41.6°F5.3°C 100% Calm Calm -- 29.86 in1011.2 mb - 0.14 in3.6 mm 0.14 in3.6 mm
11:30 AM 41.5°F5.3°C 41.5°F5.3°C 100% Calm Calm -- 29.86 in1011.2 mb - 0.09 in2.3 mm 0.09 in2.3 mm
11:20 AM 41.4°F5.2°C 41.4°F5.2°C 100% Calm Calm -- 29.86 in1011.2 mb - 0.09 in2.3 mm 0.09 in2.3 mm
11:10 AM 41.2°F5.1°C 41.2°F5.1°C 100% Calm Calm -- 29.86 in1011.2 mb - 0.09 in2.3 mm 0.09 in2.3 mm
11:00 AM 41.2°F5.1°C 41.2°F5.1°C 100% Calm Calm -- 29.86 in1011.2 mb - 0.05 in1.3 mm 0.05 in1.3 mm
10:50 AM 41.0°F5.0°C 41.0°F5.0°C 100% Calm Calm -- 29.86 in1011.2 mb - 0.05 in1.3 mm 0.05 in1.3 mm
10:40 AM 40.8°F4.9°C 40.8°F4.9°C 100% Calm Calm -- 29.86 in1011.2 mb - 0.00 in0.0 mm 0.00 in0.0 mm
10:30 AM 40.8°F4.9°C 40.8°F4.9°C 100% Calm Calm -- 29.86 in1011.2 mb - 0.00 in0.0 mm 0.00 in0.0 mm
10:20 AM 40.8°F4.9°C 40.8°F4.9°C 100% Calm Calm 2.3 mph3.7 kmh 29.86 in1011.2 mb - 0.00 in0.0 mm 0.00 in0.0 mm
10:10 AM 40.6°F4.8°C 40.6°F4.8°C 100% Calm Calm -- 29.86 in1011.2 mb - 0.00 in0.0 mm 0.00 in0.0 mm
10:00 AM 40.6°F4.8°C 40.6°F4.8°C 100% 2.3 mph SE3.7 kmh SE 3.5 mph5.6 kmh 29.86 in1011.2 mb - 0.00 in0.0 mm 0.00 in0.0 mm
09:50 AM 40.5°F4.7°C 40.5°F4.7°C 100% Calm Calm -- 29.86 in1011.2 mb - 0.00 in0.0 mm 0.00 in0.0 mm
09:40 AM 40.3°F4.6°C 40.3°F4.6°C 100% Calm Calm -- 29.86 in1011.2 mb - 0.00 in0.0 mm 0.00 in0.0 mm
09:30 AM 40.1°F4.5°C 40.1°F4.5°C 100% Calm Calm -- 29.86 in1011.2 mb - 0.00 in0.0 mm 0.00 in0.0 mm
09:20 AM 39.9°F4.4°C 39.9°F4.4°C 100% Calm Calm -- 29.86 in1011.2 mb - 0.00 in0.0 mm 0.00 in0.0 mm
09:10 AM 39.9°F4.4°C 39.9°F4.4°C 100% Calm Calm -- 29.86 in1011.2 mb - 0.00 in0.0 mm 0.00 in0.0 mm
09:00 AM 39.7°F4.3°C 39.7°F4.3°C 100% Calm Calm -- 29.86 in1011.2 mb - 0.00 in0.0 mm 0.00 in0.0 mm
08:50 AM 39.7°F4.3°C 39.7°F4.3°C 100% Calm Calm -- 29.88 in1011.9 mb - 0.00 in0.0 mm 0.00 in0.0 mm
08:40 AM 39.7°F4.3°C 39.7°F4.3°C 100% Calm Calm -- 29.88 in1011.9 mb - 0.00 in0.0 mm 0.00 in0.0 mm
08:30 AM 39.6°F4.2°C 39.6°F4.2°C 100% Calm Calm 3.5 mph5.6 kmh 29.88 in1011.9 mb - 0.00 in0.0 mm 0.00 in0.0 mm
08:20 AM 39.3°F4.1°C 39.3°F4.1°C 100% 1.2 mph SSE1.9 kmh SSE 4.6 mph7.4 kmh 29.88 in1011.9 mb - 0.00 in0.0 mm 0.00 in0.0 mm
08:10 AM 39.2°F4.0°C 39.2°F4.0°C 100% Calm Calm -- 29.88 in1011.9 mb - 0.00 in0.0 mm 0.00 in0.0 mm
08:00 AM 39.2°F4.0°C 39.2°F4.0°C 100% 2.3 mph S3.7 kmh S 2.3 mph3.7 kmh 29.88 in1011.9 mb - 0.00 in0.0 mm 0.00 in0.0 mm
07:50 AM 39.2°F4.0°C 39.2°F4.0°C 100% 1.2 mph S1.9 kmh S 2.3 mph3.7 kmh 29.88 in1011.9 mb - 0.00 in0.0 mm 0.00 in0.0 mm
07:40 AM 38.8°F3.8°C 38.8°F3.8°C 100% Calm Calm 2.3 mph3.7 kmh 29.88 in1011.9 mb - 0.00 in0.0 mm 0.00 in0.0 mm
07:30 AM 38.8°F3.8°C 38.8°F3.8°C 100% Calm Calm -- 29.86 in1011.2 mb - 0.00 in0.0 mm 0.00 in0.0 mm
07:20 AM 39.0°F3.9°C 39.0°F3.9°C 100% Calm Calm -- 29.88 in1011.9 mb - 0.00 in0.0 mm 0.00 in0.0 mm
07:10 AM 39.0°F3.9°C 39.0°F3.9°C 100% Calm Calm -- 29.88 in1011.9 mb - 0.00 in0.0 mm 0.00 in0.0 mm
07:00 AM 39.0°F3.9°C 39.0°F3.9°C 100% Calm Calm -- 29.88 in1011.9 mb - 0.00 in0.0 mm 0.00 in0.0 mm
06:50 AM 39.0°F3.9°C 39.0°F3.9°C 100% Calm Calm -- 29.88 in1011.9 mb - 0.00 in0.0 mm 0.00 in0.0 mm
06:40 AM 39.0°F3.9°C 39.0°F3.9°C 100% Calm Calm -- 29.88 in1011.9 mb - 0.00 in0.0 mm 0.00 in0.0 mm
06:30 AM 38.8°F3.8°C 38.8°F3.8°C 100% Calm Calm 2.3 mph3.7 kmh 29.88 in1011.9 mb - 0.00 in0.0 mm 0.00 in0.0 mm
06:20 AM 38.8°F3.8°C 38.8°F3.8°C 100% 1.2 mph SE1.9 kmh SE 2.3 mph3.7 kmh 29.88 in1011.9 mb - 0.00 in0.0 mm 0.00 in0.0 mm
06:10 AM 38.7°F3.7°C 38.7°F3.7°C 100% Calm Calm -- 29.88 in1011.9 mb - 0.00 in0.0 mm 0.00 in0.0 mm
06:00 AM 38.7°F3.7°C 38.7°F3.7°C 100% Calm Calm -- 29.88 in1011.9 mb - 0.00 in0.0 mm 0.00 in0.0 mm
05:50 AM 38.7°F3.7°C 38.7°F3.7°C 100% Calm Calm -- 29.88 in1011.9 mb - 0.00 in0.0 mm 0.00 in0.0 mm
05:40 AM 38.7°F3.7°C 38.7°F3.7°C 100% Calm Calm -- 29.88 in1011.9 mb - 0.00 in0.0 mm 0.00 in0.0 mm
05:30 AM 38.7°F3.7°C 38.7°F3.7°C 100% Calm Calm -- 29.91 in1012.9 mb - 0.00 in0.0 mm 0.00 in0.0 mm
05:20 AM 38.7°F3.7°C 38.7°F3.7°C 100% Calm Calm 2.3 mph3.7 kmh 29.91 in1012.9 mb - 0.00 in0.0 mm 0.00 in0.0 mm
05:10 AM 38.7°F3.7°C 38.7°F3.7°C 100% Calm Calm 2.3 mph3.7 kmh 29.91 in1012.9 mb - 0.00 in0.0 mm 0.00 in0.0 mm
05:00 AM 38.6°F3.7°C 38.6°F3.7°C 100% Calm Calm -- 29.91 in1012.9 mb - 0.00 in0.0 mm 0.00 in0.0 mm
04:50 AM 38.5°F3.6°C 38.5°F3.6°C 100% Calm Calm 3.5 mph5.6 kmh 29.91 in1012.9 mb - 0.00 in0.0 mm 0.00 in0.0 mm
04:40 AM 38.3°F3.5°C 38.3°F3.5°C 100% Calm Calm -- 29.91 in1012.9 mb - 0.00 in0.0 mm 0.00 in0.0 mm
04:30 AM 38.1°F3.4°C 38.1°F3.4°C 100% Calm Calm -- 29.91 in1012.9 mb - 0.00 in0.0 mm 0.00 in0.0 mm
04:20 AM 38.1°F3.4°C 38.1°F3.4°C 100% Calm Calm -- 29.91 in1012.9 mb - 0.00 in0.0 mm 0.00 in0.0 mm
04:10 AM 38.1°F3.4°C 38.1°F3.4°C 100% 1.2 mph SSE1.9 kmh SSE 3.5 mph5.6 kmh 29.91 in1012.9 mb - 0.00 in0.0 mm 0.00 in0.0 mm
04:00 AM 37.9°F3.3°C 37.9°F3.3°C 100% Calm Calm 2.3 mph3.7 kmh 29.91 in1012.9 mb - 0.00 in0.0 mm 0.00 in0.0 mm
03:50 AM 37.9°F3.3°C 37.9°F3.3°C 100% Calm Calm -- 29.94 in1013.9 mb - 0.00 in0.0 mm 0.00 in0.0 mm
03:40 AM 37.8°F3.2°C 37.8°F3.2°C 100% Calm Calm 2.3 mph3.7 kmh 29.94 in1013.9 mb - 0.00 in0.0 mm 0.00 in0.0 mm
03:30 AM 37.8°F3.2°C 37.8°F3.2°C 100% Calm Calm 2.3 mph3.7 kmh 29.94 in1013.9 mb - 0.00 in0.0 mm 0.00 in0.0 mm
03:20 AM 37.6°F3.1°C 37.6°F3.1°C 100% Calm Calm 2.3 mph3.7 kmh 29.94 in1013.9 mb - 0.00 in0.0 mm 0.00 in0.0 mm
03:10 AM 37.6°F3.1°C 37.6°F3.1°C 100% Calm Calm 3.5 mph5.6 kmh 29.94 in1013.9 mb - 0.00 in0.0 mm 0.00 in0.0 mm
03:00 AM 37.6°F3.1°C 37.6°F3.1°C 100% Calm Calm -- 29.94 in1013.9 mb - 0.00 in0.0 mm 0.00 in0.0 mm
02:50 AM 37.6°F3.1°C 37.6°F3.1°C 100% Calm Calm -- 29.94 in1013.9 mb - 0.00 in0.0 mm 0.00 in0.0 mm
02:40 AM 37.6°F3.1°C 37.6°F3.1°C 100% Calm Calm -- 29.94 in1013.9 mb - 0.00 in0.0 mm 0.00 in0.0 mm
02:30 AM 37.6°F3.1°C 37.6°F3.1°C 100% Calm Calm -- 29.94 in1013.9 mb - 0.00 in0.0 mm 0.00 in0.0 mm
02:20 AM 37.4°F3.0°C 37.4°F3.0°C 100% Calm Calm -- 29.94 in1013.9 mb - 0.00 in0.0 mm 0.00 in0.0 mm
02:10 AM 37.4°F3.0°C 37.4°F3.0°C 100% Calm Calm -- 29.94 in1013.9 mb - 0.00 in0.0 mm 0.00 in0.0 mm
02:00 AM 37.4°F3.0°C 37.4°F3.0°C 100% Calm Calm -- 29.97 in1014.9 mb - 0.00 in0.0 mm 0.00 in0.0 mm
01:50 AM 37.4°F3.0°C 37.4°F3.0°C 100% Calm Calm -- 29.97 in1014.9 mb - 0.00 in0.0 mm 0.00 in0.0 mm
01:40 AM 37.4°F3.0°C 37.4°F3.0°C 100% Calm Calm -- 29.97 in1014.9 mb - 0.00 in0.0 mm 0.00 in0.0 mm
01:30 AM 37.4°F3.0°C 37.4°F3.0°C 100% Calm Calm -- 29.97 in1014.9 mb - 0.00 in0.0 mm 0.00 in0.0 mm
01:20 AM 37.2°F2.9°C 37.2°F2.9°C 100% Calm Calm -- 29.97 in1014.9 mb - 0.00 in0.0 mm 0.00 in0.0 mm
01:10 AM 37.2°F2.9°C 37.2°F2.9°C 100% Calm Calm -- 29.97 in1014.9 mb - 0.00 in0.0 mm 0.00 in0.0 mm
01:00 AM 37.2°F2.9°C 37.2°F2.9°C 100% Calm Calm -- 29.97 in1014.9 mb - 0.00 in0.0 mm 0.00 in0.0 mm
12:50 AM 37.4°F3.0°C 37.4°F3.0°C 100% Calm Calm -- 29.97 in1014.9 mb - 0.00 in0.0 mm 0.00 in0.0 mm
12:40 AM 37.2°F2.9°C 37.2°F2.9°C 100% Calm Calm -- 29.97 in1014.9 mb - 0.00 in0.0 mm 0.00 in0.0 mm
12:30 AM 37.2°F2.9°C 37.2°F2.9°C 100% Calm Calm 2.3 mph3.7 kmh 29.97 in1014.9 mb - 0.00 in0.0 mm 0.00 in0.0 mm
12:20 AM 37.0°F2.8°C 36.8°F2.7°C 99% Calm Calm -- 29.97 in1014.9 mb - 0.00 in0.0 mm 0.00 in0.0 mm
12:10 AM 37.0°F2.8°C 36.8°F2.7°C 99% Calm Calm -- 29.97 in1014.9 mb - 0.00 in0.0 mm 0.00 in0.0 mm
12:00 AM 37.0°F2.8°C 36.8°F2.7°C 99% Calm Calm -- 29.97 in1014.9 mb - 0.00 in0.0 mm 0.00 in0.0 mm